HKNW METAR and TAF | Updated Today

HKNW METAR

Nairobi Wilson Airport

Observation time: 71 min. ago

HKNW 032100Z 00000KT 9999 BKN020 18/16 Q1022

Need help? Read our tutorial on how to read METARs or read the parsed version below.

Nairobi Wilson Airport (HKNW) METAR

  • Weather conditions on Fri, 03 Dec 2021 21:00:00 +0000 (71 min. ago):
  • Present conditions: Dry
  • Clouds: Broken sky at 610 meters
  • Visibility: Greater than 10 km
  • Wind: Calm
  • Temperature: 18 celsius
  • Dew point: 16 celsius
  • Pressure: 1022 millibars
  • Remarks: None


Useful to know...

HKNW TAF

Nairobi Wilson Airport

TAF HKNW 030500Z 0306/0406 VRB02KT 5000
Observation time: 17:11 hr. ago
Need help? Read our tutorial on how to read TAFs or read the parsed version below.

Parsed version of TAF for Nairobi Wilson Airport (HKNW)

  • From 03 December at 06:00 UTC, to day 04 of the month at 06:00 UTC
  • Visibility: 5000 meters
  • Wind: Variable at 2